N430GW MYNN-KORL

Flight info

Callsign N430GW
Flight time 1h 28m
Altitude 28000
Route PEACH DCT CCLUB DCT MOANS MINEE6
Aircraft TBM9/L-SDFGRWY/S

Departure

Time 2026-05-04 22:55
Airport Lynden Pindling International Airport (MYNN)

Arrival

Time 2026-05-05 00:23
Airport Orlando Executive Airport (KORL)
Time Latitude Longitude Altitude Speed Heading
2026-05-04 22:46 25.04732 -77.46595 17 ft 0 kts 180°
2026-05-04 22:49 25.04733 -77.46595 17 ft 0 kts 180°
2026-05-04 22:52 25.04712 -77.46603 17 ft 11 kts 219°
2026-05-04 22:53 25.04724 -77.46739 17 ft 22 kts 242°
2026-05-04 22:53 25.04782 -77.46873 18 ft 22 kts 307°
2026-05-04 22:53 25.04896 -77.46991 17 ft 23 kts 323°
2026-05-04 22:53 25.05015 -77.47116 17 ft 24 kts 317°
2026-05-04 22:54 25.05134 -77.47249 17 ft 25 kts 322°
2026-05-04 22:54 25.05223 -77.47405 18 ft 25 kts 268°
2026-05-04 22:54 25.05136 -77.47488 17 ft 19 kts 153°
2026-05-04 22:54 25.05019 -77.47377 16 ft 35 kts 131°
2026-05-04 22:55 25.04715 -77.47042 18 ft 87 kts 134°
2026-05-04 22:55 25.04185 -77.46498 118 ft 118 kts 134°
2026-05-04 22:55 25.03561 -77.45802 332 ft 141 kts 132°
2026-05-04 22:55 25.02865 -77.44995 683 ft 151 kts 132°
2026-05-04 22:56 25.02062 -77.44197 1052 ft 160 kts 147°
2026-05-04 22:56 25.00995 -77.43992 1533 ft 160 kts 197°
2026-05-04 22:56 25.00177 -77.44745 2026 ft 156 kts 248°
2026-05-04 22:56 24.99918 -77.45893 2533 ft 156 kts 262°
2026-05-04 22:57 25.00037 -77.47052 3028 ft 156 kts 301°
2026-05-04 22:57 25.00715 -77.47982 3533 ft 157 kts 311°
2026-05-04 22:57 25.01551 -77.48764 4024 ft 161 kts 329°
2026-05-04 22:57 25.02531 -77.49328 4509 ft 161 kts 329°
2026-05-04 22:58 25.03494 -77.49960 4997 ft 161 kts 326°
2026-05-04 22:58 25.04447 -77.50614 5477 ft 161 kts 326°
2026-05-04 22:58 25.05415 -77.51283 5880 ft 168 kts 326°
2026-05-04 22:58 25.06424 -77.51977 6253 ft 174 kts 326°
2026-05-04 22:59 25.07465 -77.52693 6616 ft 179 kts 326°
2026-05-04 22:59 25.08532 -77.53429 6969 ft 183 kts 326°
2026-05-04 22:59 25.09622 -77.54181 7325 ft 187 kts 325°
2026-05-04 22:59 25.10732 -77.54949 7689 ft 190 kts 325°
2026-05-04 23:00 25.11844 -77.55716 8050 ft 192 kts 325°
2026-05-04 23:00 25.12983 -77.56503 8413 ft 194 kts 325°
2026-05-04 23:00 25.14133 -77.57298 8780 ft 196 kts 325°
2026-05-04 23:00 25.15292 -77.58100 9156 ft 197 kts 325°
2026-05-04 23:01 25.16461 -77.58908 9532 ft 199 kts 325°
2026-05-04 23:01 25.17635 -77.59720 9912 ft 200 kts 324°
2026-05-04 23:01 25.18815 -77.60537 10256 ft 201 kts 324°
2026-05-04 23:01 25.20005 -77.61362 10655 ft 202 kts 324°
2026-05-04 23:02 25.21187 -77.62180 11125 ft 200 kts 323°
2026-05-04 23:02 25.22343 -77.62981 11593 ft 198 kts 323°
2026-05-04 23:02 25.23506 -77.63787 12066 ft 197 kts 323°
2026-05-04 23:02 25.24664 -77.64590 12556 ft 196 kts 322°
2026-05-04 23:03 25.25814 -77.65388 13050 ft 195 kts 322°
2026-05-04 23:03 25.26959 -77.66182 13554 ft 194 kts 322°
2026-05-04 23:03 25.28097 -77.66972 14031 ft 193 kts 321°
2026-05-04 23:03 25.29231 -77.67758 14479 ft 192 kts 321°
2026-05-04 23:04 25.30359 -77.68541 14936 ft 191 kts 320°
2026-05-04 23:04 25.31468 -77.69311 15353 ft 193 kts 320°
2026-05-04 23:04 25.32619 -77.70111 15705 ft 198 kts 320°
2026-05-04 23:04 25.33800 -77.70930 16069 ft 202 kts 320°
2026-05-04 23:05 25.35004 -77.71764 16440 ft 206 kts 320°
2026-05-04 23:05 25.36228 -77.72613 16821 ft 209 kts 320°
2026-05-04 23:05 25.37470 -77.73476 17200 ft 212 kts 320°
2026-05-04 23:05 25.38726 -77.74348 17583 ft 214 kts 320°
2026-05-04 23:06 25.39996 -77.75230 17971 ft 216 kts 320°
2026-05-04 23:06 25.41276 -77.76119 18345 ft 218 kts 320°
2026-05-04 23:06 25.42566 -77.77017 18688 ft 220 kts 319°
2026-05-04 23:06 25.43752 -77.78044 19023 ft 215 kts 310°
2026-05-04 23:07 25.44866 -77.79127 19368 ft 217 kts 311°
2026-05-04 23:07 25.46015 -77.80218 19709 ft 218 kts 311°
2026-05-04 23:07 25.47165 -77.81316 20064 ft 219 kts 310°
2026-05-04 23:07 25.48316 -77.82421 20417 ft 219 kts 310°
2026-05-04 23:08 25.49467 -77.83527 20779 ft 219 kts 310°
2026-05-04 23:08 25.50621 -77.84635 21143 ft 220 kts 310°
2026-05-04 23:08 25.51777 -77.85744 21516 ft 220 kts 309°
2026-05-04 23:08 25.52933 -77.86854 21893 ft 220 kts 309°
2026-05-04 23:09 25.54075 -77.87950 22264 ft 220 kts 309°
2026-05-04 23:09 25.55232 -77.89063 22643 ft 220 kts 309°
2026-05-04 23:09 25.56390 -77.90175 23034 ft 220 kts 309°
2026-05-04 23:09 25.57547 -77.91287 23425 ft 220 kts 308°
2026-05-04 23:10 25.58703 -77.92399 23778 ft 220 kts 308°
2026-05-04 23:10 25.59859 -77.93511 24104 ft 220 kts 308°
2026-05-04 23:10 25.61014 -77.94622 24437 ft 220 kts 308°
2026-05-04 23:10 25.62168 -77.95733 24776 ft 220 kts 308°
2026-05-04 23:11 25.63322 -77.96843 25116 ft 219 kts 308°
2026-05-04 23:11 25.64474 -77.97953 25459 ft 219 kts 308°
2026-05-04 23:11 25.65608 -77.99045 25805 ft 219 kts 308°
2026-05-04 23:11 25.66758 -78.00153 26159 ft 219 kts 308°
2026-05-04 23:12 25.67906 -78.01259 26514 ft 218 kts 308°
2026-05-04 23:12 25.69051 -78.02363 26875 ft 218 kts 308°
2026-05-04 23:12 25.70195 -78.03466 27246 ft 218 kts 308°
2026-05-04 23:12 25.71335 -78.04565 27615 ft 217 kts 308°
2026-05-04 23:13 25.72470 -78.05660 27975 ft 217 kts 308°
2026-05-04 23:13 25.73643 -78.06800 27990 ft 231 kts 309°
2026-05-04 23:13 25.74890 -78.08005 28004 ft 244 kts 309°
2026-05-04 23:13 25.76184 -78.09246 28004 ft 254 kts 310°
2026-05-04 23:14 25.77543 -78.10553 28004 ft 263 kts 310°
2026-05-04 23:14 25.78940 -78.11901 28005 ft 269 kts 310°
2026-05-04 23:14 25.80369 -78.13280 28004 ft 275 kts 310°
2026-05-04 23:14 25.81822 -78.14683 28008 ft 279 kts 310°
2026-05-04 23:15 25.83296 -78.16106 28009 ft 282 kts 310°
2026-05-04 23:15 25.84783 -78.17545 28006 ft 285 kts 310°
2026-05-04 23:15 25.86284 -78.18996 28007 ft 287 kts 310°
2026-05-04 23:15 25.87772 -78.20437 28010 ft 289 kts 310°
2026-05-04 23:16 25.89288 -78.21904 28010 ft 290 kts 311°
2026-05-04 23:16 25.90809 -78.23378 28010 ft 291 kts 311°
2026-05-04 23:16 25.92335 -78.24856 28012 ft 291 kts 310°
2026-05-04 23:16 25.93865 -78.26338 28002 ft 292 kts 311°
2026-05-04 23:17 25.95396 -78.27823 28003 ft 292 kts 310°
2026-05-04 23:17 25.96929 -78.29310 28003 ft 293 kts 311°
2026-05-04 23:17 25.98464 -78.30800 28008 ft 293 kts 311°
2026-05-04 23:17 25.99999 -78.32290 28009 ft 293 kts 310°
2026-05-04 23:18 26.01536 -78.33781 28005 ft 293 kts 311°
2026-05-04 23:18 26.03051 -78.35253 28009 ft 293 kts 311°
2026-05-04 23:18 26.04586 -78.36746 28015 ft 293 kts 310°
2026-05-04 23:18 26.06123 -78.38239 28009 ft 293 kts 310°
2026-05-04 23:19 26.07659 -78.39733 28008 ft 293 kts 310°
2026-05-04 23:19 26.09195 -78.41226 28009 ft 293 kts 310°
2026-05-04 23:19 26.10729 -78.42720 28009 ft 293 kts 310°
2026-05-04 23:19 26.12263 -78.44213 28008 ft 293 kts 310°
2026-05-04 23:20 26.13777 -78.45722 28005 ft 291 kts 308°
2026-05-04 23:20 26.15168 -78.47337 28001 ft 287 kts 303°
2026-05-04 23:20 26.16584 -78.48927 28015 ft 292 kts 310°
2026-05-04 23:20 26.18109 -78.50422 28016 ft 292 kts 310°
2026-05-04 23:21 26.19601 -78.51910 28016 ft 292 kts 310°
2026-05-04 23:21 26.21136 -78.53401 28016 ft 293 kts 311°
2026-05-04 23:21 26.22682 -78.54888 28020 ft 294 kts 311°
2026-05-04 23:21 26.24222 -78.56382 28017 ft 294 kts 310°
2026-05-04 23:22 26.25759 -78.57878 28018 ft 294 kts 310°
2026-05-04 23:22 26.27298 -78.59375 28021 ft 294 kts 310°
2026-05-04 23:22 26.28838 -78.60871 28020 ft 294 kts 310°
2026-05-04 23:22 26.30377 -78.62367 28024 ft 294 kts 310°
2026-05-04 23:23 26.31914 -78.63863 28023 ft 293 kts 310°
2026-05-04 23:23 26.33450 -78.65359 28023 ft 293 kts 310°
2026-05-04 23:23 26.34967 -78.66835 28020 ft 293 kts 310°
2026-05-04 23:23 26.36502 -78.68330 28023 ft 293 kts 310°
2026-05-04 23:24 26.38037 -78.69826 28024 ft 293 kts 310°
2026-05-04 23:24 26.39571 -78.71321 28026 ft 293 kts 310°
2026-05-04 23:24 26.41104 -78.72815 28026 ft 293 kts 310°
2026-05-04 23:24 26.42634 -78.74308 28028 ft 292 kts 310°
2026-05-04 23:25 26.44166 -78.75803 28028 ft 292 kts 310°
2026-05-04 23:25 26.45695 -78.77295 28029 ft 292 kts 310°
2026-05-04 23:25 26.46699 -78.78276 28029 ft 292 kts 310°
2026-05-04 23:25 26.47894 -78.79443 28027 ft 292 kts 310°
2026-05-04 23:26 26.49421 -78.80935 28026 ft 292 kts 310°
2026-05-04 23:26 26.50948 -78.82427 28027 ft 291 kts 310°
2026-05-04 23:26 26.52473 -78.83920 28027 ft 292 kts 310°
2026-05-04 23:26 26.54005 -78.85418 28025 ft 293 kts 310°
2026-05-04 23:27 26.55542 -78.86920 28027 ft 294 kts 310°
2026-05-04 23:27 26.57081 -78.88427 28030 ft 294 kts 310°
2026-05-04 23:27 26.58620 -78.89934 28029 ft 294 kts 310°
2026-05-04 23:27 26.60160 -78.91442 28033 ft 295 kts 310°
2026-05-04 23:28 26.61702 -78.92953 28031 ft 295 kts 310°
2026-05-04 23:28 26.63221 -78.94442 28029 ft 295 kts 310°
2026-05-04 23:28 26.64761 -78.95952 28031 ft 295 kts 310°
2026-05-04 23:28 26.66301 -78.97462 28033 ft 295 kts 310°
2026-05-04 23:29 26.67839 -78.98972 28032 ft 294 kts 310°
2026-05-04 23:29 26.69380 -79.00485 28031 ft 294 kts 310°
2026-05-04 23:29 26.70918 -79.01995 28033 ft 294 kts 310°
2026-05-04 23:29 26.72457 -79.03507 28034 ft 294 kts 310°
2026-05-04 23:30 26.73993 -79.05017 28036 ft 294 kts 310°
2026-05-04 23:30 26.75531 -79.06529 28035 ft 294 kts 310°
2026-05-04 23:30 26.77046 -79.08019 28037 ft 294 kts 310°
2026-05-04 23:30 26.78581 -79.09529 28037 ft 294 kts 310°
2026-05-04 23:31 26.80116 -79.11040 28035 ft 294 kts 310°
2026-05-04 23:31 26.81651 -79.12551 28036 ft 294 kts 310°
2026-05-04 23:31 26.83184 -79.14062 28036 ft 294 kts 310°
2026-05-04 23:31 26.84717 -79.15572 28033 ft 294 kts 310°
2026-05-04 23:32 26.86250 -79.17083 28033 ft 293 kts 310°
2026-05-04 23:32 26.87783 -79.18594 28043 ft 293 kts 310°
2026-05-04 23:32 26.89314 -79.20105 28041 ft 293 kts 310°
2026-05-04 23:32 26.90824 -79.21595 28043 ft 293 kts 310°
2026-05-04 23:33 26.92355 -79.23107 28041 ft 293 kts 310°
2026-05-04 23:33 26.93884 -79.24617 28043 ft 293 kts 310°
2026-05-04 23:33 26.95414 -79.26129 28044 ft 293 kts 310°
2026-05-04 23:33 26.96944 -79.27640 28043 ft 293 kts 310°
2026-05-04 23:34 26.98473 -79.29153 28041 ft 293 kts 310°
2026-05-04 23:34 27.00004 -79.30667 28045 ft 293 kts 310°
2026-05-04 23:34 27.01534 -79.32181 28044 ft 293 kts 310°
2026-05-04 23:34 27.03064 -79.33695 28049 ft 293 kts 310°
2026-05-04 23:35 27.04593 -79.35210 28049 ft 293 kts 310°
2026-05-04 23:35 27.06102 -79.36704 28046 ft 293 kts 310°
2026-05-04 23:35 27.07629 -79.38218 28046 ft 293 kts 310°
2026-05-04 23:35 27.09160 -79.39736 28047 ft 293 kts 310°
2026-05-04 23:36 27.10688 -79.41251 28045 ft 293 kts 310°
2026-05-04 23:36 27.12217 -79.42768 28047 ft 293 kts 310°
2026-05-04 23:36 27.13745 -79.44284 28050 ft 293 kts 310°
2026-05-04 23:36 27.15271 -79.45800 28051 ft 293 kts 310°
2026-05-04 23:37 27.16798 -79.47316 28046 ft 293 kts 310°
2026-05-04 23:37 27.18305 -79.48813 28052 ft 293 kts 309°
2026-05-04 23:37 27.19813 -79.50344 28045 ft 291 kts 307°
2026-05-04 23:37 27.21147 -79.52021 28037 ft 285 kts 301°
2026-05-04 23:38 27.22280 -79.53829 28034 ft 281 kts 295°
2026-05-04 23:38 27.23209 -79.55739 28032 ft 277 kts 289°
2026-05-04 23:38 27.24042 -79.57691 28037 ft 277 kts 290°
2026-05-04 23:38 27.24890 -79.59634 28037 ft 277 kts 290°
2026-05-04 23:39 27.25737 -79.61576 28041 ft 277 kts 290°
2026-05-04 23:39 27.26579 -79.63521 28039 ft 277 kts 290°
2026-05-04 23:39 27.27420 -79.65466 28043 ft 277 kts 290°
2026-05-04 23:39 27.28262 -79.67410 28044 ft 277 kts 290°
2026-05-04 23:40 27.29092 -79.69327 28040 ft 276 kts 290°
2026-05-04 23:40 27.29933 -79.71270 28043 ft 276 kts 290°
2026-05-04 23:40 27.30773 -79.73213 28045 ft 276 kts 290°
2026-05-04 23:40 27.31613 -79.75155 28037 ft 276 kts 290°
2026-05-04 23:41 27.32453 -79.77098 28044 ft 276 kts 290°
2026-05-04 23:41 27.33291 -79.79040 28041 ft 276 kts 290°
2026-05-04 23:41 27.34129 -79.80982 28046 ft 276 kts 290°
2026-05-04 23:41 27.34967 -79.82925 28041 ft 276 kts 290°
2026-05-04 23:42 27.35805 -79.84868 28045 ft 276 kts 290°
2026-05-04 23:42 27.36630 -79.86782 28047 ft 276 kts 290°
2026-05-04 23:42 27.37467 -79.88725 28049 ft 276 kts 290°
2026-05-04 23:42 27.38302 -79.90665 28040 ft 276 kts 290°
2026-05-04 23:43 27.39137 -79.92604 28049 ft 276 kts 290°
2026-05-04 23:43 27.39972 -79.94546 28045 ft 276 kts 290°
2026-05-04 23:43 27.40810 -79.96493 27928 ft 279 kts 290°
2026-05-04 23:43 27.41667 -79.98488 27582 ft 285 kts 290°
2026-05-04 23:44 27.42536 -80.00504 27204 ft 287 kts 290°
2026-05-04 23:44 27.43406 -80.02529 26825 ft 288 kts 290°
2026-05-04 23:44 27.44279 -80.04563 26447 ft 289 kts 291°
2026-05-04 23:44 27.45156 -80.06607 26065 ft 291 kts 291°
2026-05-04 23:45 27.46025 -80.08632 25685 ft 292 kts 291°
2026-05-04 23:45 27.46910 -80.10695 25296 ft 293 kts 291°
2026-05-04 23:45 27.47798 -80.12769 24914 ft 294 kts 291°
2026-05-04 23:45 27.48687 -80.14845 24561 ft 296 kts 291°
2026-05-04 23:46 27.49583 -80.16938 24170 ft 297 kts 291°
2026-05-04 23:46 27.50483 -80.19040 23779 ft 299 kts 291°
2026-05-04 23:46 27.51386 -80.21153 23350 ft 300 kts 292°
2026-05-04 23:46 27.52293 -80.23274 22944 ft 301 kts 292°
2026-05-04 23:47 27.53203 -80.25403 22543 ft 302 kts 292°
2026-05-04 23:47 27.54102 -80.27508 22150 ft 303 kts 292°
2026-05-04 23:47 27.55017 -80.29652 21750 ft 304 kts 292°
2026-05-04 23:47 27.55934 -80.31802 21351 ft 305 kts 292°
2026-05-04 23:48 27.56855 -80.33960 20946 ft 305 kts 292°
2026-05-04 23:48 27.57774 -80.36119 20546 ft 306 kts 292°
2026-05-04 23:48 27.58693 -80.38278 20153 ft 305 kts 292°
2026-05-04 23:48 27.59609 -80.40437 19752 ft 305 kts 292°
2026-05-04 23:49 27.60525 -80.42591 19343 ft 305 kts 292°
2026-05-04 23:49 27.61440 -80.44743 18949 ft 304 kts 292°
2026-05-04 23:49 27.62342 -80.46864 18557 ft 304 kts 292°
2026-05-04 23:49 27.63253 -80.49011 18132 ft 303 kts 292°
2026-05-04 23:50 27.64161 -80.51152 17725 ft 302 kts 293°
2026-05-04 23:50 27.65064 -80.53281 17331 ft 301 kts 293°
2026-05-04 23:50 27.65965 -80.55408 16892 ft 301 kts 293°
2026-05-04 23:50 27.66869 -80.57542 16481 ft 301 kts 293°
2026-05-04 23:51 27.67773 -80.59675 16083 ft 301 kts 293°
2026-05-04 23:51 27.68675 -80.61807 15690 ft 301 kts 294°
2026-05-04 23:51 27.69578 -80.63943 15295 ft 302 kts 294°
2026-05-04 23:51 27.70472 -80.66055 14906 ft 303 kts 294°
2026-05-04 23:52 27.71379 -80.68202 14513 ft 303 kts 294°
2026-05-04 23:52 27.72286 -80.70351 14113 ft 305 kts 294°
2026-05-04 23:52 27.73201 -80.72515 13696 ft 305 kts 294°
2026-05-04 23:52 27.74109 -80.74667 13280 ft 301 kts 294°
2026-05-04 23:53 27.75004 -80.76791 12886 ft 298 kts 294°
2026-05-04 23:53 27.75889 -80.78894 12496 ft 296 kts 294°
2026-05-04 23:53 27.76769 -80.80984 12113 ft 294 kts 294°
2026-05-04 23:53 27.77645 -80.83064 11719 ft 292 kts 294°
2026-05-04 23:54 27.78504 -80.85104 11340 ft 291 kts 294°
2026-05-04 23:54 27.79369 -80.87161 10958 ft 289 kts 294°
2026-05-04 23:54 27.80229 -80.89207 10579 ft 288 kts 294°
2026-05-04 23:54 27.81084 -80.91243 10201 ft 286 kts 294°
2026-05-04 23:55 27.81936 -80.93271 9812 ft 285 kts 294°
2026-05-04 23:55 27.82855 -80.95249 9432 ft 285 kts 302°
2026-05-04 23:55 27.85379 -80.98678 8674 ft 282 kts 307°
2026-05-04 23:56 27.86611 -81.00394 8306 ft 281 kts 308°
2026-05-04 23:56 27.87843 -81.02064 7943 ft 280 kts 308°
2026-05-04 23:56 27.89100 -81.03741 7575 ft 279 kts 309°
2026-05-04 23:56 27.90347 -81.05421 7210 ft 279 kts 308°
2026-05-04 23:57 27.91584 -81.07106 6845 ft 278 kts 308°
2026-05-04 23:57 27.92916 -81.08692 6480 ft 280 kts 318°
2026-05-04 23:57 27.94568 -81.09865 6107 ft 282 kts 333°
2026-05-04 23:57 27.96414 -81.10562 5993 ft 275 kts 346°
2026-05-04 23:58 27.98293 -81.10757 5986 ft 270 kts 359°
2026-05-04 23:58 28.00157 -81.10496 5989 ft 270 kts
2026-05-04 23:58 28.01981 -81.10174 5987 ft 268 kts
2026-05-04 23:58 28.03822 -81.09871 5984 ft 268 kts
2026-05-04 23:59 28.05664 -81.09537 5984 ft 269 kts
2026-05-04 23:59 28.07516 -81.09191 5989 ft 271 kts
2026-05-04 23:59 28.09399 -81.08850 5862 ft 276 kts
2026-05-04 23:59 28.11295 -81.08508 5733 ft 276 kts
2026-05-05 00:00 28.13187 -81.08179 5609 ft 275 kts
2026-05-05 00:00 28.13804 -81.08111 5531 ft 275 kts
2026-05-05 00:00 28.16965 -81.08027 5165 ft 268 kts 359°
2026-05-05 00:00 28.18828 -81.08021 4964 ft 267 kts 359°
2026-05-05 00:01 28.20658 -81.08023 4772 ft 267 kts 359°
2026-05-05 00:01 28.22512 -81.08039 4566 ft 267 kts 359°
2026-05-05 00:01 28.24368 -81.08075 4365 ft 266 kts 359°
2026-05-05 00:01 28.26222 -81.08134 4160 ft 267 kts 359°
2026-05-05 00:02 28.28074 -81.08216 3964 ft 266 kts 359°
2026-05-05 00:02 28.29298 -81.08282 3825 ft 266 kts 360°
2026-05-05 00:02 28.31762 -81.08447 3600 ft 264 kts 360°
2026-05-05 00:02 28.33595 -81.08590 3426 ft 265 kts 359°
2026-05-05 00:03 28.35407 -81.08742 3253 ft 264 kts 359°
2026-05-05 00:03 28.37239 -81.08900 3079 ft 264 kts 359°
2026-05-05 00:03 28.39066 -81.09060 2898 ft 263 kts 359°
2026-05-05 00:03 28.40889 -81.09226 2725 ft 263 kts 359°
2026-05-05 00:04 28.42710 -81.09392 2550 ft 263 kts 359°
2026-05-05 00:04 28.44530 -81.09554 2372 ft 262 kts 359°
2026-05-05 00:04 28.46346 -81.09713 2190 ft 261 kts 359°
2026-05-05 00:04 28.48155 -81.09872 2022 ft 261 kts 359°
2026-05-05 00:05 28.49915 -81.10040 2000 ft 253 kts 359°
2026-05-05 00:05 28.51639 -81.10223 1998 ft 246 kts 359°
2026-05-05 00:05 28.53326 -81.10407 1998 ft 241 kts 359°
2026-05-05 00:05 28.54996 -81.10591 1992 ft 241 kts 359°
2026-05-05 00:06 28.56655 -81.10767 1993 ft 239 kts 359°
2026-05-05 00:06 28.58307 -81.10941 1989 ft 239 kts 358°
2026-05-05 00:06 28.59972 -81.11114 1989 ft 241 kts 359°
2026-05-05 00:06 28.61076 -81.11226 2001 ft 241 kts 358°
2026-05-05 00:07 28.62682 -81.11796 1990 ft 247 kts 332°
2026-05-05 00:07 28.64107 -81.13818 1989 ft 256 kts 292°
2026-05-05 00:07 28.64351 -81.15824 1994 ft 258 kts 271°
2026-05-05 00:07 28.64324 -81.17829 1999 ft 247 kts 269°
2026-05-05 00:08 28.64295 -81.19130 1999 ft 240 kts 269°
2026-05-05 00:08 28.64217 -81.21614 1996 ft 234 kts 269°
2026-05-05 00:08 28.63950 -81.23419 1984 ft 232 kts 249°
2026-05-05 00:08 28.63524 -81.24531 1988 ft 231 kts 244°
2026-05-05 00:09 28.62832 -81.26180 1988 ft 231 kts 244°
2026-05-05 00:09 28.62140 -81.27824 1992 ft 226 kts 244°
2026-05-05 00:09 28.61285 -81.29878 1993 ft 209 kts 243°
2026-05-05 00:09 28.60869 -81.30876 1990 ft 204 kts 243°
2026-05-05 00:10 28.60082 -81.32799 1992 ft 200 kts 243°
2026-05-05 00:10 28.59696 -81.33750 1990 ft 199 kts 244°
2026-05-05 00:10 28.59110 -81.35163 1988 ft 195 kts 243°
2026-05-05 00:10 28.58535 -81.36557 1991 ft 194 kts 244°
2026-05-05 00:11 28.57962 -81.37951 1989 ft 195 kts 243°
2026-05-05 00:11 28.57397 -81.39345 1990 ft 194 kts 244°
2026-05-05 00:11 28.56826 -81.40740 1993 ft 194 kts 243°
2026-05-05 00:11 28.56256 -81.42136 1995 ft 195 kts 244°
2026-05-05 00:12 28.55673 -81.43539 1992 ft 198 kts 244°
2026-05-05 00:12 28.55080 -81.44970 1998 ft 201 kts 244°
2026-05-05 00:12 28.54476 -81.46412 1995 ft 203 kts 243°
2026-05-05 00:12 28.53890 -81.47857 2001 ft 204 kts 244°
2026-05-05 00:13 28.53311 -81.49302 1995 ft 194 kts 244°
2026-05-05 00:13 28.52798 -81.50580 1990 ft 168 kts 243°
2026-05-05 00:13 28.52312 -81.51789 2006 ft 171 kts 243°
2026-05-05 00:13 28.51793 -81.53058 2059 ft 186 kts 243°
2026-05-05 00:14 28.51254 -81.54433 2068 ft 192 kts 244°
2026-05-05 00:14 28.50707 -81.55809 2071 ft 190 kts 244°
2026-05-05 00:14 28.50163 -81.57142 2064 ft 182 kts 243°
2026-05-05 00:14 28.49646 -81.58426 2059 ft 177 kts 243°
2026-05-05 00:15 28.49140 -81.59693 2064 ft 181 kts 244°
2026-05-05 00:15 28.48606 -81.60995 2063 ft 183 kts 243°
2026-05-05 00:15 28.48073 -81.62325 2067 ft 187 kts 244°
2026-05-05 00:15 28.47524 -81.63674 2073 ft 190 kts 243°
2026-05-05 00:16 28.46974 -81.65057 2070 ft 193 kts 244°
2026-05-05 00:16 28.46342 -81.66396 2057 ft 191 kts 227°
2026-05-05 00:16 28.45236 -81.67105 2048 ft 181 kts 184°
2026-05-05 00:16 28.44060 -81.66822 2051 ft 173 kts 142°
2026-05-05 00:17 28.43396 -81.65749 2052 ft 166 kts 102°
2026-05-05 00:17 28.43406 -81.64493 2058 ft 159 kts 88°
2026-05-05 00:17 28.43460 -81.63246 2059 ft 157 kts 86°
2026-05-05 00:17 28.43692 -81.62043 2058 ft 157 kts 72°
2026-05-05 00:18 28.44115 -81.60775 2079 ft 189 kts 71°
2026-05-05 00:18 28.44644 -81.59287 2073 ft 215 kts 70°
2026-05-05 00:18 28.45247 -81.57668 2080 ft 228 kts 68°
2026-05-05 00:18 28.45862 -81.56040 2078 ft 214 kts 69°
2026-05-05 00:19 28.46461 -81.54505 2078 ft 213 kts 68°
2026-05-05 00:19 28.47054 -81.52968 2070 ft 212 kts 69°
2026-05-05 00:19 28.47641 -81.51438 2068 ft 211 kts 68°
2026-05-05 00:19 28.48208 -81.49928 2068 ft 211 kts 69°
2026-05-05 00:20 28.48788 -81.48403 2067 ft 209 kts 70°
2026-05-05 00:20 28.49367 -81.46885 2071 ft 209 kts 69°
2026-05-05 00:20 28.49944 -81.45359 2066 ft 210 kts 70°
2026-05-05 00:20 28.50517 -81.43838 1966 ft 211 kts 69°
2026-05-05 00:21 28.51096 -81.42314 1691 ft 201 kts 69°
2026-05-05 00:21 28.51621 -81.40942 1433 ft 177 kts 68°
2026-05-05 00:21 28.52074 -81.39760 1216 ft 154 kts 69°
2026-05-05 00:21 28.52466 -81.38716 1023 ft 134 kts 69°
2026-05-05 00:22 28.52817 -81.37804 854 ft 119 kts 71°
2026-05-05 00:22 28.53120 -81.37000 725 ft 97 kts 69°
2026-05-05 00:22 28.53371 -81.36344 604 ft 92 kts 68°
2026-05-05 00:22 28.53633 -81.35661 471 ft 95 kts 72°
2026-05-05 00:23 28.53881 -81.34973 364 ft 93 kts 72°
2026-05-05 00:23 28.54144 -81.34304 222 ft 93 kts 72°
2026-05-05 00:23 28.54393 -81.33627 123 ft 91 kts 71°
2026-05-05 00:23 28.54608 -81.33061 114 ft 48 kts 66°
2026-05-05 00:24 28.54717 -81.32820 112 ft 19 kts 25°
2026-05-05 00:24 28.54770 -81.32814 112 ft 10 kts 311°
2026-05-05 00:24 28.54789 -81.32877 111 ft 4 kts 305°
2026-05-05 00:24 28.54798 -81.32890 112 ft 0 kts 303°
2026-05-05 00:25 28.54806 -81.32906 112 ft 7 kts 291°
2026-05-05 00:25 28.54787 -81.32987 112 ft 14 kts 246°
2026-05-05 00:25 28.54743 -81.33092 112 ft 15 kts 246°
2026-05-05 00:25 28.54718 -81.33214 113 ft 17 kts 256°